sensor_id;sensor_type;location;lat;lon;timestamp;P1;durP1;ratioP1;P2;durP2;ratioP2
47161;SDS011;32921;53.256;8.198;2023-07-30T00:00:44;21.65;;;15.15;;
47161;SDS011;32921;53.256;8.198;2023-07-30T00:03:10;20.00;;;15.77;;
47161;SDS011;32921;53.256;8.198;2023-07-30T00:05:35;22.75;;;16.40;;
47161;SDS011;32921;53.256;8.198;2023-07-30T00:08:01;22.65;;;16.35;;
47161;SDS011;32921;53.256;8.198;2023-07-30T00:10:26;24.80;;;17.02;;
47161;SDS011;32921;53.256;8.198;2023-07-30T00:12:52;22.33;;;16.52;;
47161;SDS011;32921;53.256;8.198;2023-07-30T00:15:17;23.80;;;17.25;;
47161;SDS011;32921;53.256;8.198;2023-07-30T00:17:43;25.92;;;18.55;;
47161;SDS011;32921;53.256;8.198;2023-07-30T00:20:09;24.25;;;18.85;;
47161;SDS011;32921;53.256;8.198;2023-07-30T00:22:35;28.83;;;18.35;;
47161;SDS011;32921;53.256;8.198;2023-07-30T00:25:00;25.42;;;18.40;;
47161;SDS011;32921;53.256;8.198;2023-07-30T00:27:26;27.42;;;18.60;;
47161;SDS011;32921;53.256;8.198;2023-07-30T00:29:52;27.65;;;18.48;;
47161;SDS011;32921;53.256;8.198;2023-07-30T00:32:17;24.45;;;17.70;;
47161;SDS011;32921;53.256;8.198;2023-07-30T00:34:43;33.30;;;20.17;;
47161;SDS011;32921;53.256;8.198;2023-07-30T00:37:09;25.75;;;19.63;;
47161;SDS011;32921;53.256;8.198;2023-07-30T00:39:34;31.23;;;19.50;;
47161;SDS011;32921;53.256;8.198;2023-07-30T00:42:00;32.17;;;19.83;;
47161;SDS011;32921;53.256;8.198;2023-07-30T00:44:26;30.42;;;20.50;;
47161;SDS011;32921;53.256;8.198;2023-07-30T00:46:51;29.55;;;19.63;;
47161;SDS011;32921;53.256;8.198;2023-07-30T00:49:17;29.27;;;20.05;;
47161;SDS011;32921;53.256;8.198;2023-07-30T00:51:43;30.25;;;19.67;;
47161;SDS011;32921;53.256;8.198;2023-07-30T00:54:10;29.05;;;19.75;;
47161;SDS011;32921;53.256;8.198;2023-07-30T00:56:36;31.48;;;21.60;;
47161;SDS011;32921;53.256;8.198;2023-07-30T00:59:01;31.15;;;19.70;;
47161;SDS011;32921;53.256;8.198;2023-07-30T01:01:28;30.30;;;19.73;;
47161;SDS011;32921;53.256;8.198;2023-07-30T01:03:57;25.92;;;19.85;;
47161;SDS011;32921;53.256;8.198;2023-07-30T01:06:23;31.23;;;20.90;;
47161;SDS011;32921;53.256;8.198;2023-07-30T01:08:49;33.20;;;21.10;;
47161;SDS011;32921;53.256;8.198;2023-07-30T01:11:14;27.50;;;19.55;;
47161;SDS011;32921;53.256;8.198;2023-07-30T01:13:41;30.67;;;19.90;;
47161;SDS011;32921;53.256;8.198;2023-07-30T01:16:07;31.38;;;21.05;;
47161;SDS011;32921;53.256;8.198;2023-07-30T01:18:33;29.60;;;20.27;;
47161;SDS011;32921;53.256;8.198;2023-07-30T01:20:59;34.63;;;19.98;;
47161;SDS011;32921;53.256;8.198;2023-07-30T01:23:25;34.10;;;20.92;;
47161;SDS011;32921;53.256;8.198;2023-07-30T01:25:59;28.83;;;20.02;;
47161;SDS011;32921;53.256;8.198;2023-07-30T01:28:28;28.50;;;19.13;;
47161;SDS011;32921;53.256;8.198;2023-07-30T01:31:01;31.25;;;19.23;;
47161;SDS011;32921;53.256;8.198;2023-07-30T01:33:28;35.55;;;20.48;;
47161;SDS011;32921;53.256;8.198;2023-07-30T01:35:55;33.20;;;20.08;;
47161;SDS011;32921;53.256;8.198;2023-07-30T01:38:22;33.65;;;20.17;;
47161;SDS011;32921;53.256;8.198;2023-07-30T01:40:48;32.38;;;20.27;;
47161;SDS011;32921;53.256;8.198;2023-07-30T01:43:13;28.83;;;19.20;;
47161;SDS011;32921;53.256;8.198;2023-07-30T01:45:39;29.75;;;20.05;;
47161;SDS011;32921;53.256;8.198;2023-07-30T01:48:05;29.92;;;19.85;;
47161;SDS011;32921;53.256;8.198;2023-07-30T01:50:31;28.00;;;19.80;;
47161;SDS011;32921;53.256;8.198;2023-07-30T01:52:57;30.20;;;19.10;;
47161;SDS011;32921;53.256;8.198;2023-07-30T01:55:22;31.75;;;18.60;;
47161;SDS011;32921;53.256;8.198;2023-07-30T01:57:48;30.27;;;17.30;;
47161;SDS011;32921;53.256;8.198;2023-07-30T02:00:13;26.25;;;17.70;;
47161;SDS011;32921;53.256;8.198;2023-07-30T02:02:39;27.55;;;17.35;;
47161;SDS011;32921;53.256;8.198;2023-07-30T02:05:04;24.88;;;17.08;;
47161;SDS011;32921;53.256;8.198;2023-07-30T02:07:30;30.10;;;16.33;;
47161;SDS011;32921;53.256;8.198;2023-07-30T02:09:56;28.10;;;16.23;;
47161;SDS011;32921;53.256;8.198;2023-07-30T02:12:21;27.50;;;16.10;;
47161;SDS011;32921;53.256;8.198;2023-07-30T02:14:47;27.88;;;16.15;;
47161;SDS011;32921;53.256;8.198;2023-07-30T02:17:12;30.05;;;16.42;;
47161;SDS011;32921;53.256;8.198;2023-07-30T02:19:38;25.27;;;15.45;;
47161;SDS011;32921;53.256;8.198;2023-07-30T02:22:04;28.77;;;14.70;;
47161;SDS011;32921;53.256;8.198;2023-07-30T02:24:29;30.92;;;15.00;;
47161;SDS011;32921;53.256;8.198;2023-07-30T02:26:55;30.55;;;15.52;;
47161;SDS011;32921;53.256;8.198;2023-07-30T02:29:20;24.40;;;13.80;;
47161;SDS011;32921;53.256;8.198;2023-07-30T02:31:46;22.63;;;13.98;;
47161;SDS011;32921;53.256;8.198;2023-07-30T02:34:11;29.00;;;15.25;;
47161;SDS011;32921;53.256;8.198;2023-07-30T02:36:37;24.45;;;14.20;;
47161;SDS011;32921;53.256;8.198;2023-07-30T02:39:03;28.83;;;14.65;;
47161;SDS011;32921;53.256;8.198;2023-07-30T02:41:28;30.15;;;14.18;;
47161;SDS011;32921;53.256;8.198;2023-07-30T02:43:54;23.95;;;13.88;;
47161;SDS011;32921;53.256;8.198;2023-07-30T02:46:19;32.00;;;14.35;;
47161;SDS011;32921;53.256;8.198;2023-07-30T02:48:45;30.38;;;13.55;;
47161;SDS011;32921;53.256;8.198;2023-07-30T02:51:10;30.15;;;14.23;;
47161;SDS011;32921;53.256;8.198;2023-07-30T02:53:36;24.38;;;14.05;;
47161;SDS011;32921;53.256;8.198;2023-07-30T02:56:01;28.65;;;14.23;;
47161;SDS011;32921;53.256;8.198;2023-07-30T02:58:27;26.98;;;13.80;;
47161;SDS011;32921;53.256;8.198;2023-07-30T03:00:52;28.20;;;13.13;;
47161;SDS011;32921;53.256;8.198;2023-07-30T03:03:18;24.50;;;14.65;;
47161;SDS011;32921;53.256;8.198;2023-07-30T03:05:43;24.65;;;13.80;;
47161;SDS011;32921;53.256;8.198;2023-07-30T03:08:09;28.00;;;14.88;;
47161;SDS011;32921;53.256;8.198;2023-07-30T03:10:37;31.98;;;15.35;;
47161;SDS011;32921;53.256;8.198;2023-07-30T03:13:03;32.60;;;14.60;;
47161;SDS011;32921;53.256;8.198;2023-07-30T03:15:29;29.20;;;14.43;;
47161;SDS011;32921;53.256;8.198;2023-07-30T03:17:54;28.50;;;14.00;;
47161;SDS011;32921;53.256;8.198;2023-07-30T03:20:20;34.58;;;13.88;;
47161;SDS011;32921;53.256;8.198;2023-07-30T03:22:45;32.60;;;14.48;;
47161;SDS011;32921;53.256;8.198;2023-07-30T03:25:11;29.63;;;14.10;;
47161;SDS011;32921;53.256;8.198;2023-07-30T03:27:36;39.40;;;15.07;;
47161;SDS011;32921;53.256;8.198;2023-07-30T03:30:02;29.42;;;14.07;;
47161;SDS011;32921;53.256;8.198;2023-07-30T03:32:29;36.30;;;13.75;;
47161;SDS011;32921;53.256;8.198;2023-07-30T03:34:55;29.48;;;13.00;;
47161;SDS011;32921;53.256;8.198;2023-07-30T03:37:20;31.27;;;12.90;;
47161;SDS011;32921;53.256;8.198;2023-07-30T03:39:46;28.25;;;13.95;;
47161;SDS011;32921;53.256;8.198;2023-07-30T03:42:11;33.83;;;13.38;;
47161;SDS011;32921;53.256;8.198;2023-07-30T03:44:37;33.47;;;13.45;;
47161;SDS011;32921;53.256;8.198;2023-07-30T03:47:02;33.13;;;12.95;;
47161;SDS011;32921;53.256;8.198;2023-07-30T03:49:28;30.75;;;12.65;;
47161;SDS011;32921;53.256;8.198;2023-07-30T03:51:54;29.70;;;12.68;;
47161;SDS011;32921;53.256;8.198;2023-07-30T03:54:19;23.33;;;11.60;;
47161;SDS011;32921;53.256;8.198;2023-07-30T03:56:45;32.97;;;12.73;;
47161;SDS011;32921;53.256;8.198;2023-07-30T03:59:10;29.17;;;11.13;;
47161;SDS011;32921;53.256;8.198;2023-07-30T04:01:36;30.17;;;11.65;;
47161;SDS011;32921;53.256;8.198;2023-07-30T04:04:01;27.92;;;10.93;;
47161;SDS011;32921;53.256;8.198;2023-07-30T04:06:27;33.33;;;11.25;;
47161;SDS011;32921;53.256;8.198;2023-07-30T04:08:52;22.42;;;9.63;;
47161;SDS011;32921;53.256;8.198;2023-07-30T04:11:18;24.77;;;10.43;;
47161;SDS011;32921;53.256;8.198;2023-07-30T04:13:43;37.20;;;10.02;;
47161;SDS011;32921;53.256;8.198;2023-07-30T04:16:09;29.20;;;10.35;;
47161;SDS011;32921;53.256;8.198;2023-07-30T04:18:35;31.60;;;10.55;;
47161;SDS011;32921;53.256;8.198;2023-07-30T04:21:00;25.08;;;9.15;;
47161;SDS011;32921;53.256;8.198;2023-07-30T04:23:26;23.13;;;9.25;;
47161;SDS011;32921;53.256;8.198;2023-07-30T04:25:51;20.00;;;8.45;;
47161;SDS011;32921;53.256;8.198;2023-07-30T04:28:17;23.95;;;8.43;;
47161;SDS011;32921;53.256;8.198;2023-07-30T04:30:43;31.00;;;8.65;;
47161;SDS011;32921;53.256;8.198;2023-07-30T04:33:09;24.77;;;9.07;;
47161;SDS011;32921;53.256;8.198;2023-07-30T04:35:35;23.40;;;7.38;;
47161;SDS011;32921;53.256;8.198;2023-07-30T04:38:00;26.63;;;8.02;;
47161;SDS011;32921;53.256;8.198;2023-07-30T04:40:26;20.17;;;7.45;;
47161;SDS011;32921;53.256;8.198;2023-07-30T04:42:51;24.52;;;7.63;;
47161;SDS011;32921;53.256;8.198;2023-07-30T04:45:17;24.73;;;7.95;;
47161;SDS011;32921;53.256;8.198;2023-07-30T04:47:42;27.15;;;7.07;;
47161;SDS011;32921;53.256;8.198;2023-07-30T04:50:08;28.67;;;7.45;;
47161;SDS011;32921;53.256;8.198;2023-07-30T04:52:34;23.02;;;7.18;;
47161;SDS011;32921;53.256;8.198;2023-07-30T04:54:59;18.02;;;6.57;;
47161;SDS011;32921;53.256;8.198;2023-07-30T04:57:25;18.33;;;6.30;;
47161;SDS011;32921;53.256;8.198;2023-07-30T04:59:51;25.25;;;6.65;;
47161;SDS011;32921;53.256;8.198;2023-07-30T05:02:16;23.08;;;7.05;;
47161;SDS011;32921;53.256;8.198;2023-07-30T05:04:42;25.50;;;6.40;;
47161;SDS011;32921;53.256;8.198;2023-07-30T05:07:07;25.33;;;6.40;;
47161;SDS011;32921;53.256;8.198;2023-07-30T05:09:33;17.95;;;5.75;;
47161;SDS011;32921;53.256;8.198;2023-07-30T05:11:58;18.92;;;6.10;;
47161;SDS011;32921;53.256;8.198;2023-07-30T05:14:24;19.00;;;6.13;;
47161;SDS011;32921;53.256;8.198;2023-07-30T05:16:49;21.60;;;6.18;;
47161;SDS011;32921;53.256;8.198;2023-07-30T05:19:15;21.98;;;6.10;;
47161;SDS011;32921;53.256;8.198;2023-07-30T05:21:41;23.95;;;5.85;;
47161;SDS011;32921;53.256;8.198;2023-07-30T05:24:07;18.90;;;6.05;;
47161;SDS011;32921;53.256;8.198;2023-07-30T05:26:33;21.45;;;6.18;;
47161;SDS011;32921;53.256;8.198;2023-07-30T05:28:58;16.73;;;5.80;;
47161;SDS011;32921;53.256;8.198;2023-07-30T05:31:24;21.60;;;6.10;;
47161;SDS011;32921;53.256;8.198;2023-07-30T05:33:49;23.52;;;6.25;;
47161;SDS011;32921;53.256;8.198;2023-07-30T05:36:15;17.40;;;5.53;;
47161;SDS011;32921;53.256;8.198;2023-07-30T05:38:40;25.20;;;5.38;;
47161;SDS011;32921;53.256;8.198;2023-07-30T05:41:06;18.70;;;5.43;;
47161;SDS011;32921;53.256;8.198;2023-07-30T05:43:32;18.98;;;5.80;;
47161;SDS011;32921;53.256;8.198;2023-07-30T05:45:57;17.92;;;5.15;;
47161;SDS011;32921;53.256;8.198;2023-07-30T05:48:23;21.77;;;5.93;;
47161;SDS011;32921;53.256;8.198;2023-07-30T05:50:48;15.82;;;5.60;;
47161;SDS011;32921;53.256;8.198;2023-07-30T05:53:14;17.73;;;5.40;;
47161;SDS011;32921;53.256;8.198;2023-07-30T05:55:40;21.90;;;5.60;;
47161;SDS011;32921;53.256;8.198;2023-07-30T05:58:05;23.20;;;5.90;;
47161;SDS011;32921;53.256;8.198;2023-07-30T06:00:31;16.65;;;5.38;;
47161;SDS011;32921;53.256;8.198;2023-07-30T06:02:56;16.35;;;5.85;;
47161;SDS011;32921;53.256;8.198;2023-07-30T06:05:22;19.88;;;5.80;;
47161;SDS011;32921;53.256;8.198;2023-07-30T06:07:47;18.63;;;5.63;;
47161;SDS011;32921;53.256;8.198;2023-07-30T06:10:13;19.85;;;5.00;;
47161;SDS011;32921;53.256;8.198;2023-07-30T06:12:39;27.55;;;6.10;;
47161;SDS011;32921;53.256;8.198;2023-07-30T06:15:05;16.25;;;5.10;;
47161;SDS011;32921;53.256;8.198;2023-07-30T06:17:32;18.83;;;5.22;;
47161;SDS011;32921;53.256;8.198;2023-07-30T06:19:57;18.38;;;5.20;;
47161;SDS011;32921;53.256;8.198;2023-07-30T06:22:23;20.25;;;5.32;;
47161;SDS011;32921;53.256;8.198;2023-07-30T06:24:48;23.40;;;5.28;;
47161;SDS011;32921;53.256;8.198;2023-07-30T06:27:14;24.60;;;5.63;;
47161;SDS011;32921;53.256;8.198;2023-07-30T06:29:39;18.30;;;5.50;;
47161;SDS011;32921;53.256;8.198;2023-07-30T06:32:05;15.65;;;5.38;;
47161;SDS011;32921;53.256;8.198;2023-07-30T06:34:31;21.90;;;5.10;;
47161;SDS011;32921;53.256;8.198;2023-07-30T06:36:57;16.92;;;5.55;;
47161;SDS011;32921;53.256;8.198;2023-07-30T06:39:22;17.40;;;4.90;;
47161;SDS011;32921;53.256;8.198;2023-07-30T06:41:48;24.48;;;6.40;;
47161;SDS011;32921;53.256;8.198;2023-07-30T06:44:13;16.75;;;4.90;;
47161;SDS011;32921;53.256;8.198;2023-07-30T06:46:39;13.93;;;4.75;;
47161;SDS011;32921;53.256;8.198;2023-07-30T06:49:04;17.58;;;4.90;;
47161;SDS011;32921;53.256;8.198;2023-07-30T06:51:30;14.18;;;4.82;;
47161;SDS011;32921;53.256;8.198;2023-07-30T06:53:56;17.30;;;5.43;;
47161;SDS011;32921;53.256;8.198;2023-07-30T06:56:21;19.98;;;5.75;;
47161;SDS011;32921;53.256;8.198;2023-07-30T06:58:47;17.15;;;5.13;;
47161;SDS011;32921;53.256;8.198;2023-07-30T07:01:12;19.77;;;5.72;;
47161;SDS011;32921;53.256;8.198;2023-07-30T07:03:38;13.05;;;4.90;;
47161;SDS011;32921;53.256;8.198;2023-07-30T07:06:04;15.77;;;5.22;;
47161;SDS011;32921;53.256;8.198;2023-07-30T07:08:30;23.38;;;5.57;;
47161;SDS011;32921;53.256;8.198;2023-07-30T07:10:55;17.85;;;5.13;;
47161;SDS011;32921;53.256;8.198;2023-07-30T07:13:21;19.90;;;5.30;;
47161;SDS011;32921;53.256;8.198;2023-07-30T07:15:47;18.83;;;5.03;;
47161;SDS011;32921;53.256;8.198;2023-07-30T07:18:12;18.95;;;5.20;;
47161;SDS011;32921;53.256;8.198;2023-07-30T07:20:38;17.25;;;4.38;;
47161;SDS011;32921;53.256;8.198;2023-07-30T07:23:04;16.40;;;4.65;;
47161;SDS011;32921;53.256;8.198;2023-07-30T07:25:29;13.57;;;4.30;;
47161;SDS011;32921;53.256;8.198;2023-07-30T07:27:55;16.15;;;4.60;;
47161;SDS011;32921;53.256;8.198;2023-07-30T07:30:20;18.05;;;4.90;;
47161;SDS011;32921;53.256;8.198;2023-07-30T07:32:46;16.27;;;4.40;;
47161;SDS011;32921;53.256;8.198;2023-07-30T07:35:15;17.83;;;5.05;;
47161;SDS011;32921;53.256;8.198;2023-07-30T07:37:41;13.82;;;3.75;;
47161;SDS011;32921;53.256;8.198;2023-07-30T07:40:07;16.80;;;4.05;;
47161;SDS011;32921;53.256;8.198;2023-07-30T07:42:34;16.38;;;4.05;;
47161;SDS011;32921;53.256;8.198;2023-07-30T07:45:00;17.98;;;3.90;;
47161;SDS011;32921;53.256;8.198;2023-07-30T07:47:26;18.83;;;3.95;;
47161;SDS011;32921;53.256;8.198;2023-07-30T07:49:51;15.48;;;3.08;;
47161;SDS011;32921;53.256;8.198;2023-07-30T07:52:17;15.75;;;3.78;;
47161;SDS011;32921;53.256;8.198;2023-07-30T07:54:44;13.15;;;3.90;;
47161;SDS011;32921;53.256;8.198;2023-07-30T07:57:10;14.20;;;3.25;;
47161;SDS011;32921;53.256;8.198;2023-07-30T07:59:35;14.35;;;3.75;;
47161;SDS011;32921;53.256;8.198;2023-07-30T08:02:01;17.17;;;3.92;;
47161;SDS011;32921;53.256;8.198;2023-07-30T08:04:27;15.18;;;3.78;;
47161;SDS011;32921;53.256;8.198;2023-07-30T08:06:53;19.17;;;4.72;;
47161;SDS011;32921;53.256;8.198;2023-07-30T08:09:18;15.25;;;3.83;;
47161;SDS011;32921;53.256;8.198;2023-07-30T08:11:44;15.43;;;3.88;;
47161;SDS011;32921;53.256;8.198;2023-07-30T08:14:09;17.52;;;3.92;;
47161;SDS011;32921;53.256;8.198;2023-07-30T08:16:35;20.90;;;4.38;;
47161;SDS011;32921;53.256;8.198;2023-07-30T08:19:00;22.58;;;4.00;;
47161;SDS011;32921;53.256;8.198;2023-07-30T08:21:26;18.27;;;4.05;;
47161;SDS011;32921;53.256;8.198;2023-07-30T08:23:52;15.38;;;4.28;;
47161;SDS011;32921;53.256;8.198;2023-07-30T08:26:17;18.20;;;4.45;;
47161;SDS011;32921;53.256;8.198;2023-07-30T08:28:43;17.15;;;4.47;;
47161;SDS011;32921;53.256;8.198;2023-07-30T08:31:08;18.90;;;4.63;;
47161;SDS011;32921;53.256;8.198;2023-07-30T08:33:34;23.90;;;4.68;;
47161;SDS011;32921;53.256;8.198;2023-07-30T08:35:59;20.33;;;4.30;;
47161;SDS011;32921;53.256;8.198;2023-07-30T08:38:25;18.42;;;4.05;;
47161;SDS011;32921;53.256;8.198;2023-07-30T08:40:51;18.38;;;4.75;;
47161;SDS011;32921;53.256;8.198;2023-07-30T08:43:20;16.95;;;4.40;;
47161;SDS011;32921;53.256;8.198;2023-07-30T08:45:45;15.77;;;4.20;;
47161;SDS011;32921;53.256;8.198;2023-07-30T08:48:11;17.02;;;4.00;;
47161;SDS011;32921;53.256;8.198;2023-07-30T08:50:36;20.40;;;4.55;;
47161;SDS011;32921;53.256;8.198;2023-07-30T08:53:03;18.00;;;4.03;;
47161;SDS011;32921;53.256;8.198;2023-07-30T08:55:28;15.52;;;3.78;;
47161;SDS011;32921;53.256;8.198;2023-07-30T08:57:57;14.73;;;4.05;;
47161;SDS011;32921;53.256;8.198;2023-07-30T09:00:26;19.00;;;4.10;;
47161;SDS011;32921;53.256;8.198;2023-07-30T09:02:56;17.02;;;4.05;;
47161;SDS011;32921;53.256;8.198;2023-07-30T09:05:25;14.25;;;3.60;;
47161;SDS011;32921;53.256;8.198;2023-07-30T09:07:54;16.33;;;3.92;;
47161;SDS011;32921;53.256;8.198;2023-07-30T09:10:20;17.42;;;4.25;;
47161;SDS011;32921;53.256;8.198;2023-07-30T09:12:46;20.73;;;4.00;;
47161;SDS011;32921;53.256;8.198;2023-07-30T09:15:30;18.90;;;3.95;;
47161;SDS011;32921;53.256;8.198;2023-07-30T09:17:57;16.13;;;3.58;;
47161;SDS011;32921;53.256;8.198;2023-07-30T09:20:23;17.95;;;3.83;;
47161;SDS011;32921;53.256;8.198;2023-07-30T09:22:49;15.57;;;4.28;;
47161;SDS011;32921;53.256;8.198;2023-07-30T09:25:17;19.10;;;4.20;;
47161;SDS011;32921;53.256;8.198;2023-07-30T09:27:47;15.00;;;3.70;;
47161;SDS011;32921;53.256;8.198;2023-07-30T09:30:14;15.23;;;3.78;;
47161;SDS011;32921;53.256;8.198;2023-07-30T09:32:50;17.02;;;3.88;;
47161;SDS011;32921;53.256;8.198;2023-07-30T09:35:17;16.13;;;3.65;;
47161;SDS011;32921;53.256;8.198;2023-07-30T09:37:43;13.82;;;2.95;;
47161;SDS011;32921;53.256;8.198;2023-07-30T09:40:15;9.48;;;2.70;;
47161;SDS011;32921;53.256;8.198;2023-07-30T09:42:46;15.50;;;2.85;;
47161;SDS011;32921;53.256;8.198;2023-07-30T09:45:21;11.40;;;2.83;;
47161;SDS011;32921;53.256;8.198;2023-07-30T09:47:49;14.40;;;3.15;;
47161;SDS011;32921;53.256;8.198;2023-07-30T09:50:15;13.55;;;3.28;;
47161;SDS011;32921;53.256;8.198;2023-07-30T09:52:41;11.32;;;2.25;;
47161;SDS011;32921;53.256;8.198;2023-07-30T09:55:08;11.10;;;2.40;;
47161;SDS011;32921;53.256;8.198;2023-07-30T09:57:34;10.80;;;2.13;;
47161;SDS011;32921;53.256;8.198;2023-07-30T10:00:02;9.02;;;2.60;;
47161;SDS011;32921;53.256;8.198;2023-07-30T10:02:28;16.73;;;3.20;;
47161;SDS011;32921;53.256;8.198;2023-07-30T10:04:59;11.00;;;2.70;;
47161;SDS011;32921;53.256;8.198;2023-07-30T10:07:25;10.70;;;3.00;;
47161;SDS011;32921;53.256;8.198;2023-07-30T10:09:55;13.45;;;2.88;;
47161;SDS011;32921;53.256;8.198;2023-07-30T10:12:27;14.27;;;2.80;;
47161;SDS011;32921;53.256;8.198;2023-07-30T10:17:21;13.30;;;2.45;;
47161;SDS011;32921;53.256;8.198;2023-07-30T10:19:48;15.95;;;3.00;;
47161;SDS011;32921;53.256;8.198;2023-07-30T10:24:56;15.07;;;2.67;;
47161;SDS011;32921;53.256;8.198;2023-07-30T10:27:26;17.75;;;3.10;;
47161;SDS011;32921;53.256;8.198;2023-07-30T10:32:38;10.35;;;2.60;;
47161;SDS011;32921;53.256;8.198;2023-07-30T10:38:15;12.63;;;2.80;;
47161;SDS011;32921;53.256;8.198;2023-07-30T10:43:48;13.38;;;3.33;;
47161;SDS011;32921;53.256;8.198;2023-07-30T10:46:15;16.58;;;3.33;;
47161;SDS011;32921;53.256;8.198;2023-07-30T10:48:44;12.10;;;2.17;;
47161;SDS011;32921;53.256;8.198;2023-07-30T10:51:15;14.38;;;2.72;;
47161;SDS011;32921;53.256;8.198;2023-07-30T10:53:46;11.02;;;2.85;;
47161;SDS011;32921;53.256;8.198;2023-07-30T10:56:13;7.75;;;2.08;;
47161;SDS011;32921;53.256;8.198;2023-07-30T10:58:41;9.68;;;2.38;;
47161;SDS011;32921;53.256;8.198;2023-07-30T11:01:08;13.50;;;2.53;;
47161;SDS011;32921;53.256;8.198;2023-07-30T11:03:34;11.40;;;2.42;;
47161;SDS011;32921;53.256;8.198;2023-07-30T11:06:02;16.08;;;3.17;;
47161;SDS011;32921;53.256;8.198;2023-07-30T11:08:38;11.93;;;2.60;;
47161;SDS011;32921;53.256;8.198;2023-07-30T11:11:05;11.43;;;2.58;;
47161;SDS011;32921;53.256;8.198;2023-07-30T11:13:50;10.25;;;2.60;;
47161;SDS011;32921;53.256;8.198;2023-07-30T11:16:16;11.45;;;2.45;;
47161;SDS011;32921;53.256;8.198;2023-07-30T11:18:42;12.55;;;2.75;;
47161;SDS011;32921;53.256;8.198;2023-07-30T11:21:09;15.57;;;2.92;;
47161;SDS011;32921;53.256;8.198;2023-07-30T11:23:36;11.88;;;3.33;;
47161;SDS011;32921;53.256;8.198;2023-07-30T11:26:04;11.93;;;3.03;;
47161;SDS011;32921;53.256;8.198;2023-07-30T11:28:35;16.45;;;3.20;;
47161;SDS011;32921;53.256;8.198;2023-07-30T11:31:02;14.43;;;3.00;;
47161;SDS011;32921;53.256;8.198;2023-07-30T11:33:37;12.15;;;3.10;;
47161;SDS011;32921;53.256;8.198;2023-07-30T11:36:05;11.25;;;3.08;;
47161;SDS011;32921;53.256;8.198;2023-07-30T11:38:32;12.23;;;3.10;;
47161;SDS011;32921;53.256;8.198;2023-07-30T11:40:59;8.80;;;2.78;;
47161;SDS011;32921;53.256;8.198;2023-07-30T11:43:25;9.68;;;2.50;;
47161;SDS011;32921;53.256;8.198;2023-07-30T11:48:36;9.98;;;2.67;;
47161;SDS011;32921;53.256;8.198;2023-07-30T11:51:02;9.88;;;2.22;;
47161;SDS011;32921;53.256;8.198;2023-07-30T11:53:44;13.38;;;3.08;;
47161;SDS011;32921;53.256;8.198;2023-07-30T11:56:24;12.52;;;2.63;;
47161;SDS011;32921;53.256;8.198;2023-07-30T11:59:15;9.45;;;2.58;;
47161;SDS011;32921;53.256;8.198;2023-07-30T12:01:40;14.57;;;2.65;;
47161;SDS011;32921;53.256;8.198;2023-07-30T12:04:07;6.00;;;2.03;;
47161;SDS011;32921;53.256;8.198;2023-07-30T12:09:18;6.78;;;2.20;;
47161;SDS011;32921;53.256;8.198;2023-07-30T12:11:47;7.38;;;1.83;;
47161;SDS011;32921;53.256;8.198;2023-07-30T12:14:15;7.07;;;2.30;;
47161;SDS011;32921;53.256;8.198;2023-07-30T12:16:41;6.22;;;2.00;;
47161;SDS011;32921;53.256;8.198;2023-07-30T12:19:07;6.43;;;1.80;;
47161;SDS011;32921;53.256;8.198;2023-07-30T12:21:33;6.10;;;1.60;;
47161;SDS011;32921;53.256;8.198;2023-07-30T12:23:59;9.10;;;2.00;;
47161;SDS011;32921;53.256;8.198;2023-07-30T12:26:24;7.20;;;1.75;;
47161;SDS011;32921;53.256;8.198;2023-07-30T12:28:50;7.60;;;1.75;;
47161;SDS011;32921;53.256;8.198;2023-07-30T12:31:15;9.15;;;1.77;;
47161;SDS011;32921;53.256;8.198;2023-07-30T12:33:41;11.73;;;1.70;;
47161;SDS011;32921;53.256;8.198;2023-07-30T12:36:06;9.45;;;2.25;;
47161;SDS011;32921;53.256;8.198;2023-07-30T12:38:32;10.00;;;2.00;;
47161;SDS011;32921;53.256;8.198;2023-07-30T12:40:57;11.85;;;2.17;;
47161;SDS011;32921;53.256;8.198;2023-07-30T12:43:23;7.38;;;1.95;;
47161;SDS011;32921;53.256;8.198;2023-07-30T12:45:49;7.20;;;1.83;;
47161;SDS011;32921;53.256;8.198;2023-07-30T12:48:14;17.23;;;3.00;;
47161;SDS011;32921;53.256;8.198;2023-07-30T12:50:40;7.82;;;1.75;;
47161;SDS011;32921;53.256;8.198;2023-07-30T12:53:05;9.98;;;2.05;;
47161;SDS011;32921;53.256;8.198;2023-07-30T12:55:31;9.68;;;1.77;;
47161;SDS011;32921;53.256;8.198;2023-07-30T12:57:57;8.00;;;2.30;;
47161;SDS011;32921;53.256;8.198;2023-07-30T13:00:23;11.07;;;2.20;;
47161;SDS011;32921;53.256;8.198;2023-07-30T13:02:49;10.27;;;1.60;;
47161;SDS011;32921;53.256;8.198;2023-07-30T13:05:17;17.30;;;2.13;;
47161;SDS011;32921;53.256;8.198;2023-07-30T13:07:43;6.57;;;1.45;;
47161;SDS011;32921;53.256;8.198;2023-07-30T13:10:09;7.78;;;1.80;;
47161;SDS011;32921;53.256;8.198;2023-07-30T13:12:35;6.90;;;1.80;;
47161;SDS011;32921;53.256;8.198;2023-07-30T13:15:01;9.00;;;1.98;;
47161;SDS011;32921;53.256;8.198;2023-07-30T13:17:27;7.00;;;1.77;;
47161;SDS011;32921;53.256;8.198;2023-07-30T13:19:53;9.32;;;2.22;;
47161;SDS011;32921;53.256;8.198;2023-07-30T13:22:18;5.45;;;1.60;;
47161;SDS011;32921;53.256;8.198;2023-07-30T13:24:44;6.53;;;1.67;;
47161;SDS011;32921;53.256;8.198;2023-07-30T13:27:09;9.32;;;1.83;;
47161;SDS011;32921;53.256;8.198;2023-07-30T13:29:35;8.00;;;1.90;;
47161;SDS011;32921;53.256;8.198;2023-07-30T13:32:01;9.18;;;2.17;;
47161;SDS011;32921;53.256;8.198;2023-07-30T13:34:26;5.93;;;1.55;;
47161;SDS011;32921;53.256;8.198;2023-07-30T13:36:52;7.85;;;1.80;;
47161;SDS011;32921;53.256;8.198;2023-07-30T13:39:18;7.78;;;1.50;;
47161;SDS011;32921;53.256;8.198;2023-07-30T13:41:43;6.53;;;2.00;;
47161;SDS011;32921;53.256;8.198;2023-07-30T13:44:09;7.00;;;1.48;;
47161;SDS011;32921;53.256;8.198;2023-07-30T13:46:36;6.38;;;1.70;;
47161;SDS011;32921;53.256;8.198;2023-07-30T13:49:02;9.95;;;1.90;;
47161;SDS011;32921;53.256;8.198;2023-07-30T13:51:27;8.35;;;1.95;;
47161;SDS011;32921;53.256;8.198;2023-07-30T13:53:57;7.68;;;1.83;;
47161;SDS011;32921;53.256;8.198;2023-07-30T13:56:24;9.35;;;1.92;;
47161;SDS011;32921;53.256;8.198;2023-07-30T13:58:49;10.85;;;2.03;;
47161;SDS011;32921;53.256;8.198;2023-07-30T14:01:15;7.43;;;2.00;;
47161;SDS011;32921;53.256;8.198;2023-07-30T14:03:40;8.95;;;2.10;;
47161;SDS011;32921;53.256;8.198;2023-07-30T14:06:06;7.90;;;1.95;;
47161;SDS011;32921;53.256;8.198;2023-07-30T14:08:31;9.30;;;2.13;;
47161;SDS011;32921;53.256;8.198;2023-07-30T14:10:57;8.10;;;1.90;;
47161;SDS011;32921;53.256;8.198;2023-07-30T14:13:24;6.65;;;1.48;;
47161;SDS011;32921;53.256;8.198;2023-07-30T14:15:49;7.78;;;2.00;;
47161;SDS011;32921;53.256;8.198;2023-07-30T14:18:15;7.10;;;1.60;;
47161;SDS011;32921;53.256;8.198;2023-07-30T14:20:40;7.00;;;1.52;;
47161;SDS011;32921;53.256;8.198;2023-07-30T14:23:06;5.22;;;1.30;;
47161;SDS011;32921;53.256;8.198;2023-07-30T14:25:32;5.78;;;1.30;;
47161;SDS011;32921;53.256;8.198;2023-07-30T14:27:57;4.32;;;1.08;;
47161;SDS011;32921;53.256;8.198;2023-07-30T14:30:23;5.00;;;1.15;;
47161;SDS011;32921;53.256;8.198;2023-07-30T14:32:49;4.38;;;1.20;;
47161;SDS011;32921;53.256;8.198;2023-07-30T14:35:14;4.45;;;0.98;;
47161;SDS011;32921;53.256;8.198;2023-07-30T14:37:40;7.22;;;1.40;;
47161;SDS011;32921;53.256;8.198;2023-07-30T14:40:06;3.95;;;1.08;;
47161;SDS011;32921;53.256;8.198;2023-07-30T14:42:32;4.25;;;1.00;;
47161;SDS011;32921;53.256;8.198;2023-07-30T14:44:57;5.35;;;1.13;;
47161;SDS011;32921;53.256;8.198;2023-07-30T14:47:23;6.55;;;1.10;;